Time;durP1;ratioP1;P1;durP2;ratioP2;P2;SDS_P1;SDS_P2;PMS_P1;PMS_P2;Temp;Humidity;BMP_temperature;BMP_pressure;BME280_temperature;BME280_humidity;BME280_pressure;Samples;Min_cycle;Max_cycle;Signal;HPM_P1;HPM_P2
2020/12/25 00:01:20;;;;;;;9.85;5.20;;;5.40;99.90;;;;;;4957726;28;20215;-77
2020/12/25 00:03:46;;;;;;;6.90;4.03;;;5.40;99.90;;;;;;4957217;28;20174;-78
2020/12/25 00:06:12;;;;;;;4.72;3.75;;;5.40;99.90;;;;;;4971626;28;20218;-77
2020/12/25 00:08:37;;;;;;;9.20;5.33;;;5.40;99.90;;;;;;4953989;29;20167;-77
2020/12/25 00:11:03;;;;;;;6.77;3.43;;;5.30;99.90;;;;;;4949805;28;20546;-77
2020/12/25 00:13:29;;;;;;;11.23;5.67;;;5.40;99.90;;;;;;4973949;28;20598;-77
2020/12/25 00:15:55;;;;;;;6.30;3.70;;;5.40;99.90;;;;;;4971878;28;21034;-76
2020/12/25 00:18:21;;;;;;;8.00;3.63;;;5.40;99.90;;;;;;4955666;28;20206;-77
2020/12/25 00:20:51;;;;;;;5.20;3.33;;;5.40;99.90;;;;;;4960583;28;20208;-77
2020/12/25 00:23:16;;;;;;;7.38;3.20;;;5.30;99.90;;;;;;4937486;29;20532;-76
2020/12/25 00:25:42;;;;;;;4.97;3.10;;;5.30;99.90;;;;;;4964334;28;20213;-77
2020/12/25 00:28:08;;;;;;;8.67;3.33;;;5.40;99.90;;;;;;4954706;28;20254;-77
2020/12/25 00:30:34;;;;;;;5.87;3.90;;;5.40;99.90;;;;;;4957750;28;20795;-77
2020/12/25 00:33:00;;;;;;;6.40;3.87;;;5.40;99.90;;;;;;4991258;28;20202;-77
2020/12/25 00:35:25;;;;;;;12.30;4.77;;;5.40;99.90;;;;;;4973273;28;20462;-77
2020/12/25 00:37:51;;;;;;;4.70;3.93;;;5.40;99.90;;;;;;4973329;28;20399;-77
2020/12/25 00:40:17;;;;;;;9.10;4.37;;;5.30;99.90;;;;;;4957001;28;20675;-78
2020/12/25 00:42:43;;;;;;;6.80;3.90;;;5.30;99.90;;;;;;4963389;28;20262;-78
2020/12/25 00:45:08;;;;;;;8.10;4.40;;;5.30;99.90;;;;;;4952552;28;20455;-77
2020/12/25 00:47:34;;;;;;;10.67;4.40;;;5.30;99.90;;;;;;4938626;29;20175;-76
2020/12/25 00:50:00;;;;;;;8.80;4.13;;;5.30;99.90;;;;;;4963359;28;20450;-76
2020/12/25 00:52:26;;;;;;;10.23;3.60;;;5.30;99.90;;;;;;4945880;29;20570;-77
2020/12/25 00:54:52;;;;;;;7.47;4.78;;;5.30;99.90;;;;;;4956244;28;20223;-77
2020/12/25 00:57:18;;;;;;;6.00;4.25;;;5.30;99.90;;;;;;4957574;28;20195;-77
2020/12/25 00:59:44;;;;;;;8.52;3.85;;;5.30;99.90;;;;;;4956376;28;20238;-76
2020/12/25 01:02:10;;;;;;;7.40;3.83;;;5.30;99.90;;;;;;4971704;28;20670;-77
2020/12/25 01:04:36;;;;;;;7.55;3.58;;;5.30;99.90;;;;;;4958237;28;20198;-77
2020/12/25 01:07:06;;;;;;;12.98;4.10;;;5.30;99.90;;;;;;4962307;28;20172;-77
2020/12/25 01:09:32;;;;;;;6.45;4.10;;;5.30;99.90;;;;;;4944717;28;20170;-77
2020/12/25 01:11:59;;;;;;;8.50;3.45;;;5.30;99.90;;;;;;4976031;28;20222;-77
2020/12/25 01:14:27;;;;;;;7.30;3.72;;;5.30;99.90;;;;;;4975219;28;20222;-74
2020/12/25 01:16:54;;;;;;;4.57;3.17;;;5.30;99.90;;;;;;4975878;28;20254;-77
2020/12/25 01:19:22;;;;;;;10.20;4.70;;;5.30;99.90;;;;;;4957410;28;20174;-77
2020/12/25 01:21:47;;;;;;;6.30;3.78;;;5.30;99.90;;;;;;4975949;28;20222;-77
2020/12/25 01:24:13;;;;;;;9.43;4.30;;;5.30;99.90;;;;;;4957698;28;20211;-77
2020/12/25 01:26:39;;;;;;;5.83;3.57;;;5.30;99.90;;;;;;4975396;28;20218;-77
2020/12/25 01:29:04;;;;;;;4.97;4.10;;;5.30;99.90;;;;;;4975859;28;20210;-77
2020/12/25 01:31:30;;;;;;;6.30;3.70;;;5.30;99.90;;;;;;4967140;28;20475;-76
2020/12/25 01:33:56;;;;;;;6.37;3.70;;;5.30;99.90;;;;;;4975790;28;20210;-76
2020/12/25 01:36:21;;;;;;;7.90;3.77;;;5.30;99.90;;;;;;4973528;28;20702;-76
2020/12/25 01:38:47;;;;;;;6.93;3.93;;;5.20;99.90;;;;;;4955294;28;20172;-77
2020/12/25 01:41:13;;;;;;;4.23;2.90;;;5.20;99.90;;;;;;4974605;28;20222;-77
2020/12/25 01:43:39;;;;;;;5.97;4.10;;;5.30;99.90;;;;;;4955994;28;20227;-77
2020/12/25 01:46:05;;;;;;;6.43;4.47;;;5.20;99.90;;;;;;4957679;28;20226;-76
2020/12/25 01:48:32;;;;;;;7.15;3.42;;;5.20;99.90;;;;;;4975078;28;20930;-76
2020/12/25 01:50:59;;;;;;;4.93;3.15;;;5.30;99.90;;;;;;4965508;28;20207;-77
2020/12/25 01:53:27;;;;;;;5.78;3.72;;;5.20;99.90;;;;;;4960541;28;20198;-76
2020/12/25 01:55:53;;;;;;;3.60;3.03;;;5.30;99.90;;;;;;4956670;28;20234;-77
2020/12/25 01:58:22;;;;;;;8.52;3.72;;;5.20;99.90;;;;;;4957220;28;20196;-77
2020/12/25 02:00:48;;;;;;;5.85;3.55;;;5.20;99.90;;;;;;4974437;28;20289;-77
2020/12/25 02:03:15;;;;;;;4.22;3.22;;;5.20;99.90;;;;;;4974152;28;20218;-78
2020/12/25 02:05:43;;;;;;;7.05;2.80;;;5.30;99.90;;;;;;4974412;28;20290;-76
2020/12/25 02:08:09;;;;;;;6.70;3.40;;;5.30;99.90;;;;;;4973468;28;20206;-77
2020/12/25 02:10:36;;;;;;;5.88;3.75;;;5.30;99.90;;;;;;4937639;29;20208;-77
2020/12/25 02:13:02;;;;;;;7.55;3.58;;;5.20;99.90;;;;;;4955468;28;20282;-77
2020/12/25 02:15:28;;;;;;;4.30;3.60;;;5.20;99.90;;;;;;4974816;28;20230;-76
2020/12/25 02:17:54;;;;;;;6.03;3.28;;;5.20;99.90;;;;;;4963651;28;20184;-76
2020/12/25 02:20:20;;;;;;;5.60;3.40;;;5.20;99.90;;;;;;4937682;29;20291;-76
2020/12/25 02:22:46;;;;;;;5.80;3.63;;;5.20;99.90;;;;;;4957610;28;20435;-76
2020/12/25 02:25:11;;;;;;;9.80;3.67;;;5.20;99.90;;;;;;4954646;28;20215;-76
2020/12/25 02:27:37;;;;;;;4.43;3.67;;;5.20;99.90;;;;;;4962513;28;20175;-78
2020/12/25 02:30:06;;;;;;;7.23;3.10;;;5.20;99.90;;;;;;4963853;28;20273;-76
2020/12/25 02:32:33;;;;;;;5.60;3.40;;;5.20;99.90;;;;;;4970334;28;20188;-76
2020/12/25 02:34:59;;;;;;;9.10;3.20;;;5.20;99.90;;;;;;4954470;28;20298;-78
2020/12/25 02:37:25;;;;;;;7.10;3.23;;;5.20;99.90;;;;;;4938007;29;20291;-76
2020/12/25 02:39:51;;;;;;;5.32;3.40;;;5.20;99.90;;;;;;4954271;29;20219;-77
2020/12/25 02:42:17;;;;;;;6.55;3.83;;;5.20;99.90;;;;;;4937729;29;20207;-77
2020/12/25 02:44:43;;;;;;;7.53;2.83;;;5.20;99.90;;;;;;4970887;28;20211;-78
2020/12/25 02:47:10;;;;;;;8.00;3.00;;;5.20;99.90;;;;;;4973503;28;20419;-76
2020/12/25 02:49:37;;;;;;;4.80;3.50;;;5.20;99.90;;;;;;4973184;28;20403;-76
2020/12/25 02:52:02;;;;;;;13.07;2.85;;;5.10;99.90;;;;;;4969401;28;20282;-75
2020/12/25 02:54:28;;;;;;;6.27;2.80;;;5.10;99.90;;;;;;4954219;28;20283;-75
2020/12/25 02:56:54;;;;;;;5.13;3.20;;;5.10;99.90;;;;;;4972196;28;20414;-75
2020/12/25 02:59:19;;;;;;;6.73;3.00;;;5.10;99.90;;;;;;4971242;28;20206;-77
2020/12/25 03:01:51;;;;;;;4.03;2.83;;;5.10;99.90;;;;;;4956521;28;20238;-75
2020/12/25 03:04:18;;;;;;;7.85;2.90;;;5.10;99.90;;;;;;4972847;28;20186;-75
2020/12/25 03:06:44;;;;;;;8.88;3.13;;;5.10;99.90;;;;;;4959427;28;20214;-75
2020/12/25 03:09:10;;;;;;;7.50;2.88;;;5.10;99.90;;;;;;4973455;28;20634;-75
2020/12/25 03:11:36;;;;;;;4.07;2.50;;;5.10;99.90;;;;;;4953975;28;20231;-75
2020/12/25 03:14:02;;;;;;;4.93;3.10;;;5.10;99.90;;;;;;4954227;29;20530;-75
2020/12/25 03:16:27;;;;;;;6.60;2.70;;;5.10;99.90;;;;;;4970838;28;20314;-76
2020/12/25 03:18:53;;;;;;;7.10;3.00;;;5.00;99.90;;;;;;4972344;28;20596;-75
2020/12/25 03:21:19;;;;;;;9.57;3.37;;;5.00;99.90;;;;;;4952028;28;20203;-75
2020/12/25 03:23:44;;;;;;;7.60;3.70;;;4.90;99.90;;;;;;4973666;28;20171;-76
2020/12/25 03:26:10;;;;;;;7.30;4.40;;;4.90;99.90;;;;;;4936560;29;20702;-76
2020/12/25 03:28:36;;;;;;;14.97;4.93;;;4.90;99.90;;;;;;4954406;28;20694;-75
2020/12/25 03:31:01;;;;;;;10.60;4.60;;;4.90;99.90;;;;;;4953272;29;20233;-75
2020/12/25 03:33:27;;;;;;;7.13;4.17;;;4.90;99.90;;;;;;4957097;28;20195;-76
2020/12/25 03:35:53;;;;;;;8.67;5.70;;;4.90;99.90;;;;;;4972544;28;20226;-76
2020/12/25 03:38:19;;;;;;;9.93;5.50;;;4.90;99.90;;;;;;4971236;28;20262;-76
2020/12/25 03:40:45;;;;;;;6.53;4.93;;;4.90;99.90;;;;;;4960854;28;20621;-75
2020/12/25 03:43:10;;;;;;;8.93;5.03;;;4.80;99.90;;;;;;4972699;28;20434;-76
2020/12/25 03:45:36;;;;;;;10.67;3.83;;;4.80;99.90;;;;;;4953156;28;20455;-75
2020/12/25 03:48:02;;;;;;;8.40;3.67;;;4.90;99.90;;;;;;4936450;29;20168;-76
2020/12/25 03:50:28;;;;;;;7.03;3.23;;;4.90;99.90;;;;;;4970683;28;20505;-76
2020/12/25 03:52:54;;;;;;;8.02;3.88;;;4.90;99.90;;;;;;4972708;28;20661;-75
2020/12/25 03:55:20;;;;;;;8.63;4.97;;;4.90;99.90;;;;;;4956077;28;20227;-77
2020/12/25 03:57:46;;;;;;;5.30;4.60;;;4.90;99.90;;;;;;4960667;28;20171;-75
2020/12/25 04:00:11;;;;;;;10.80;4.50;;;4.80;99.90;;;;;;4962228;28;20219;-77
2020/12/25 04:02:37;;;;;;;8.83;4.60;;;4.80;99.90;;;;;;4957819;28;20455;-76
2020/12/25 04:05:04;;;;;;;10.10;4.70;;;4.80;99.90;;;;;;4960684;28;20215;-76
2020/12/25 04:07:29;;;;;;;9.27;3.90;;;4.70;99.90;;;;;;4954745;28;20426;-77
2020/12/25 04:09:55;;;;;;;5.03;4.13;;;4.80;99.90;;;;;;4971931;28;20214;-76
2020/12/25 04:12:21;;;;;;;7.17;4.73;;;4.80;99.90;;;;;;4971722;28;20192;-76
2020/12/25 04:14:46;;;;;;;6.80;4.83;;;4.70;99.90;;;;;;4971939;28;20293;-75
2020/12/25 04:17:12;;;;;;;7.50;4.77;;;4.70;99.90;;;;;;4954335;28;20663;-76
2020/12/25 04:19:38;;;;;;;6.03;4.17;;;4.70;99.90;;;;;;4952928;28;20311;-76
2020/12/25 04:22:04;;;;;;;11.40;4.30;;;4.70;99.90;;;;;;4971624;28;20199;-75
2020/12/25 04:24:29;;;;;;;10.40;4.83;;;4.70;99.90;;;;;;4954052;28;20230;-76
2020/12/25 04:26:55;;;;;;;5.50;3.93;;;4.70;99.90;;;;;;4971712;28;20171;-76
2020/12/25 04:29:21;;;;;;;3.80;3.00;;;4.70;99.90;;;;;;4971754;28;20179;-77
2020/12/25 04:31:46;;;;;;;6.63;3.27;;;4.70;99.90;;;;;;4971546;28;20269;-75
2020/12/25 04:34:12;;;;;;;5.50;3.00;;;4.60;99.90;;;;;;4972269;28;20195;-75
2020/12/25 04:36:38;;;;;;;6.07;3.37;;;4.60;99.90;;;;;;4965091;28;20746;-75
2020/12/25 04:39:06;;;;;;;5.90;2.90;;;4.70;99.90;;;;;;4936226;29;20423;-76
2020/12/25 04:41:35;;;;;;;9.45;2.85;;;4.70;99.90;;;;;;4941765;28;20203;-75
2020/12/25 04:44:03;;;;;;;5.85;3.60;;;4.60;99.90;;;;;;4972298;28;20219;-77
2020/12/25 04:46:29;;;;;;;10.30;3.88;;;4.60;99.90;;;;;;4956315;28;20202;-75
2020/12/25 04:48:55;;;;;;;4.60;3.07;;;4.70;99.90;;;;;;4972502;28;20178;-75
2020/12/25 04:51:21;;;;;;;4.13;3.60;;;4.60;99.90;;;;;;4971297;28;20199;-76
2020/12/25 04:53:52;;;;;;;7.03;4.03;;;4.60;99.90;;;;;;4972095;28;20797;-76
2020/12/25 04:56:22;;;;;;;5.93;3.78;;;4.60;99.90;;;;;;4954736;28;20208;-75
2020/12/25 04:58:48;;;;;;;12.68;3.65;;;4.60;99.90;;;;;;4967773;28;20166;-76
2020/12/25 05:01:14;;;;;;;7.00;3.73;;;4.60;99.90;;;;;;4971679;28;20218;-75
2020/12/25 05:03:43;;;;;;;6.25;3.55;;;4.50;99.90;;;;;;4936453;29;20518;-76
2020/12/25 05:06:13;;;;;;;5.88;3.53;;;4.50;99.90;;;;;;4952287;28;20563;-76
2020/12/25 05:08:47;;;;;;;6.15;3.55;;;4.60;99.90;;;;;;4970656;28;20183;-75
2020/12/25 05:11:18;;;;;;;6.55;3.55;;;4.60;99.90;;;;;;4953567;28;20195;-76
2020/12/25 05:13:51;;;;;;;12.25;4.38;;;4.60;99.90;;;;;;4971785;28;20241;-75
2020/12/25 05:16:19;;;;;;;9.73;3.92;;;4.50;99.90;;;;;;4970416;28;20689;-75
2020/12/25 05:18:47;;;;;;;8.07;3.17;;;4.50;99.90;;;;;;4971900;28;20270;-76
2020/12/25 05:21:14;;;;;;;11.20;3.78;;;4.50;99.90;;;;;;4969464;28;20246;-76
2020/12/25 05:23:41;;;;;;;4.45;2.65;;;4.50;99.90;;;;;;4971703;28;20191;-77
2020/12/25 05:26:09;;;;;;;8.20;2.85;;;4.50;99.90;;;;;;4953242;28;20685;-75
2020/12/25 05:28:37;;;;;;;7.97;3.45;;;4.50;99.90;;;;;;4954491;28;20202;-77
2020/12/25 05:31:04;;;;;;;11.27;3.35;;;4.50;99.90;;;;;;4970655;28;20294;-76
2020/12/25 05:33:31;;;;;;;9.45;4.10;;;4.50;99.90;;;;;;4973348;28;20229;-76
2020/12/25 05:35:56;;;;;;;7.07;2.88;;;4.50;99.90;;;;;;4957729;28;20813;-76
2020/12/25 05:38:23;;;;;;;5.97;3.10;;;4.40;99.90;;;;;;4956161;28;20203;-76
2020/12/25 05:40:49;;;;;;;15.82;3.30;;;4.40;99.90;;;;;;4970582;28;20223;-77
2020/12/25 05:43:18;;;;;;;9.73;2.93;;;4.40;99.90;;;;;;4974985;28;20273;-75
2020/12/25 05:45:45;;;;;;;9.15;2.50;;;4.50;99.90;;;;;;4956737;28;20450;-75
2020/12/25 05:48:11;;;;;;;5.57;2.92;;;4.50;99.90;;;;;;4974202;28;20515;-76
2020/12/25 05:50:38;;;;;;;7.57;2.38;;;4.40;99.90;;;;;;4957038;28;20215;-75
2020/12/25 05:53:05;;;;;;;8.27;2.63;;;4.50;99.90;;;;;;4965322;28;20196;-76
2020/12/25 05:55:30;;;;;;;8.10;3.33;;;4.50;99.90;;;;;;4955299;28;20226;-75
2020/12/25 05:57:57;;;;;;;4.60;2.60;;;4.50;99.90;;;;;;4955821;28;20176;-75
2020/12/25 06:00:25;;;;;;;7.00;2.70;;;4.50;99.90;;;;;;4937501;29;20470;-76
2020/12/25 06:02:53;;;;;;;8.88;2.17;;;4.50;99.90;;;;;;4954656;28;20551;-76
2020/12/25 06:05:20;;;;;;;10.52;3.45;;;4.50;99.90;;;;;;4958657;28;20207;-75
2020/12/25 06:07:59;;;;;;;7.35;2.60;;;4.50;99.90;;;;;;4974251;28;20195;-76
2020/12/25 06:10:28;;;;;;;6.22;2.88;;;4.50;99.90;;;;;;4968452;28;20686;-76
2020/12/25 06:12:55;;;;;;;7.43;2.55;;;4.50;99.90;;;;;;4962288;28;20196;-76
2020/12/25 06:15:29;;;;;;;10.70;2.72;;;4.50;99.90;;;;;;4971133;28;20215;-76
2020/12/25 06:18:37;;;;;;;12.20;3.03;;;4.50;99.90;;;;;;4970538;28;20643;-75
2020/12/25 06:21:12;;;;;;;4.75;2.80;;;4.50;99.90;;;;;;4954258;28;20216;-75
2020/12/25 06:23:42;;;;;;;6.38;3.15;;;4.40;99.90;;;;;;4962577;28;20219;-76
2020/12/25 06:26:08;;;;;;;4.75;2.28;;;4.40;99.90;;;;;;4973460;28;20599;-75
2020/12/25 06:28:38;;;;;;;6.57;2.50;;;4.40;99.90;;;;;;4960501;28;20180;-76
2020/12/25 06:31:06;;;;;;;7.65;2.40;;;4.40;99.90;;;;;;4953901;29;20578;-75
2020/12/25 06:33:32;;;;;;;7.57;2.20;;;4.40;99.90;;;;;;4954589;28;20652;-76
2020/12/25 06:35:59;;;;;;;3.20;2.10;;;4.30;99.90;;;;;;4953899;28;20247;-76
2020/12/25 06:38:25;;;;;;;6.30;2.20;;;4.40;99.90;;;;;;4955392;28;20190;-77
2020/12/25 06:40:57;;;;;;;5.85;2.33;;;4.30;99.90;;;;;;4955727;28;20225;-77
2020/12/25 06:43:23;;;;;;;8.95;3.03;;;4.30;99.90;;;;;;4953650;28;20215;-76
2020/12/25 06:45:58;;;;;;;11.40;2.53;;;4.30;99.90;;;;;;4952517;28;20279;-75
2020/12/25 06:48:28;;;;;;;5.82;2.17;;;4.30;99.90;;;;;;4971339;28;20446;-75
2020/12/25 06:50:56;;;;;;;5.60;2.70;;;4.30;99.90;;;;;;4972897;28;20211;-75
2020/12/25 06:53:42;;;;;;;7.07;2.60;;;4.40;99.90;;;;;;4969193;28;20188;-76
2020/12/25 06:56:18;;;;;;;7.55;2.80;;;4.30;99.90;;;;;;4953228;28;20498;-76
2020/12/25 06:58:54;;;;;;;9.07;2.35;;;4.30;99.90;;;;;;4960126;28;20270;-77
2020/12/25 07:01:42;;;;;;;6.25;2.70;;;4.30;99.90;;;;;;4972407;28;20428;-76
2020/12/25 07:04:25;;;;;;;8.95;2.63;;;4.30;99.90;;;;;;4955057;28;20202;-77
2020/12/25 07:06:53;;;;;;;6.35;2.22;;;4.20;99.90;;;;;;4972677;28;20282;-76
2020/12/25 07:09:19;;;;;;;8.98;2.58;;;4.20;99.90;;;;;;4972044;28;20198;-76
2020/12/25 07:11:52;;;;;;;6.45;2.70;;;4.20;99.90;;;;;;4972860;28;20693;-76
2020/12/25 07:14:19;;;;;;;7.15;2.05;;;4.20;99.90;;;;;;4957804;28;20282;-75
2020/12/25 07:16:45;;;;;;;5.72;2.65;;;4.20;99.90;;;;;;4953161;29;20742;-76
2020/12/25 07:19:10;;;;;;;4.20;2.25;;;4.20;99.90;;;;;;4966834;28;20179;-76
2020/12/25 07:21:38;;;;;;;7.20;2.30;;;4.20;99.90;;;;;;4966142;28;20698;-75
2020/12/25 07:24:03;;;;;;;4.70;2.45;;;4.20;99.90;;;;;;4958253;28;20164;-76
2020/12/25 07:26:29;;;;;;;5.50;2.97;;;4.20;99.90;;;;;;4958788;28;20207;-76
2020/12/25 07:28:56;;;;;;;11.63;3.03;;;4.20;99.90;;;;;;4953415;28;20241;-77
2020/12/25 07:31:22;;;;;;;6.30;3.80;;;4.20;99.90;;;;;;4966224;28;20439;-75
2020/12/25 07:33:54;;;;;;;7.00;2.88;;;4.30;99.90;;;;;;4953200;29;20175;-75
2020/12/25 07:36:21;;;;;;;16.13;3.63;;;4.20;99.90;;;;;;4953046;28;20227;-76
2020/12/25 07:38:46;;;;;;;6.00;2.28;;;4.20;99.90;;;;;;4955829;28;20195;-75
2020/12/25 07:41:12;;;;;;;8.87;2.77;;;4.20;99.90;;;;;;4955502;28;20207;-75
2020/12/25 07:43:38;;;;;;;6.57;2.97;;;4.20;99.90;;;;;;4954554;28;20208;-75
2020/12/25 07:46:10;;;;;;;3.72;2.63;;;4.20;99.90;;;;;;4963990;28;20214;-75
2020/12/25 07:48:35;;;;;;;7.28;2.53;;;4.20;99.90;;;;;;4953105;29;20163;-75
2020/12/25 07:51:01;;;;;;;10.13;2.67;;;4.20;99.90;;;;;;4953232;28;20231;-76
2020/12/25 07:53:30;;;;;;;8.48;2.55;;;4.20;99.90;;;;;;4969068;28;20558;-75
2020/12/25 07:55:58;;;;;;;7.43;2.28;;;4.20;99.90;;;;;;4952240;28;20713;-75
2020/12/25 07:58:24;;;;;;;6.50;3.13;;;4.20;99.90;;;;;;4956622;28;20191;-75
2020/12/25 08:00:50;;;;;;;4.20;2.33;;;4.20;99.90;;;;;;4962864;28;20218;-77
2020/12/25 08:03:15;;;;;;;5.57;2.60;;;4.30;99.90;;;;;;4971790;28;20190;-75
2020/12/25 08:05:41;;;;;;;10.40;2.97;;;4.20;99.90;;;;;;4971215;28;20214;-75
2020/12/25 08:08:08;;;;;;;4.80;2.17;;;4.20;99.90;;;;;;4971867;28;20206;-75
2020/12/25 08:10:35;;;;;;;7.47;3.42;;;4.20;99.90;;;;;;4957976;28;20463;-75
2020/12/25 08:13:04;;;;;;;4.75;2.30;;;4.10;99.90;;;;;;4952363;28;20184;-76
2020/12/25 08:15:33;;;;;;;3.42;2.30;;;4.20;99.90;;;;;;4967881;28;20223;-75
2020/12/25 08:17:59;;;;;;;5.25;2.33;;;4.20;99.90;;;;;;4971728;28;20579;-77
2020/12/25 08:20:25;;;;;;;11.30;3.27;;;4.20;99.90;;;;;;4953979;28;20254;-75
2020/12/25 08:22:58;;;;;;;4.85;2.70;;;4.20;99.90;;;;;;4952250;29;20247;-75
2020/12/25 08:25:27;;;;;;;6.20;2.83;;;4.20;99.90;;;;;;4968027;28;20289;-75
2020/12/25 08:27:54;;;;;;;4.75;2.50;;;4.20;99.90;;;;;;4963323;28;20184;-75
2020/12/25 08:30:21;;;;;;;4.75;2.75;;;4.30;99.90;;;;;;4957047;28;20265;-77
2020/12/25 08:32:47;;;;;;;3.78;2.30;;;4.30;99.90;;;;;;4971557;28;20190;-75
2020/12/25 08:35:18;;;;;;;9.70;2.77;;;4.30;99.90;;;;;;4970550;28;20210;-76
2020/12/25 08:38:02;;;;;;;4.63;3.10;;;4.30;99.90;;;;;;4971653;28;20922;-75
2020/12/25 08:40:39;;;;;;;6.43;2.85;;;4.30;99.90;;;;;;4954574;28;20559;-76
2020/12/25 08:43:09;;;;;;;4.80;2.22;;;4.30;99.90;;;;;;4935129;29;20290;-75
2020/12/25 08:45:36;;;;;;;11.45;2.88;;;4.30;99.90;;;;;;4935338;28;20223;-76
2020/12/25 08:48:11;;;;;;;13.57;3.60;;;4.30;99.90;;;;;;4953004;28;20172;-75
2020/12/25 08:50:41;;;;;;;6.75;2.97;;;4.30;99.90;;;;;;4953953;28;20217;-76
2020/12/25 08:53:19;;;;;;;4.53;2.67;;;4.30;99.90;;;;;;4954334;28;20199;-75
2020/12/25 08:55:50;;;;;;;3.75;2.38;;;4.30;99.90;;;;;;4968071;28;20219;-76
2020/12/25 08:58:20;;;;;;;2.72;2.40;;;4.30;99.90;;;;;;4973107;28;20258;-76
2020/12/25 09:01:03;;;;;;;6.97;2.00;;;4.30;99.90;;;;;;4970483;28;20222;-76
2020/12/25 09:03:40;;;;;;;5.35;2.28;;;4.30;99.90;;;;;;4970526;28;21672;-75
2020/12/25 09:06:06;;;;;;;7.72;2.28;;;4.40;99.90;;;;;;4971227;28;20226;-75
2020/12/25 09:08:32;;;;;;;3.80;2.25;;;4.40;99.90;;;;;;4970506;28;20554;-76
2020/12/25 09:10:58;;;;;;;3.70;2.23;;;4.40;99.90;;;;;;4955257;28;20223;-75
2020/12/25 09:13:24;;;;;;;6.35;2.08;;;4.40;99.90;;;;;;4973559;28;20450;-76
2020/12/25 09:15:49;;;;;;;3.63;2.00;;;4.40;99.90;;;;;;4960573;28;20238;-75
2020/12/25 09:18:15;;;;;;;3.50;2.37;;;4.40;99.90;;;;;;4955774;29;20186;-75
2020/12/25 09:20:41;;;;;;;2.87;2.10;;;4.50;99.90;;;;;;4949816;28;20230;-78
2020/12/25 09:23:06;;;;;;;3.43;2.20;;;4.40;99.90;;;;;;4957450;28;20207;-76
2020/12/25 09:25:32;;;;;;;8.73;2.57;;;4.50;99.90;;;;;;4973608;28;20314;-77
2020/12/25 09:27:58;;;;;;;3.20;2.40;;;4.50;99.90;;;;;;4973244;28;20586;-75
2020/12/25 09:30:23;;;;;;;3.00;2.27;;;4.50;99.90;;;;;;4937609;29;20222;-76
2020/12/25 09:32:49;;;;;;;8.20;3.10;;;4.50;99.90;;;;;;4955260;28;20203;-76
2020/12/25 09:35:15;;;;;;;2.10;1.50;;;4.50;99.90;;;;;;4954718;28;20736;-76
2020/12/25 09:37:40;;;;;;;5.40;2.23;;;4.50;99.90;;;;;;4955529;28;20164;-76
2020/12/25 09:40:06;;;;;;;3.70;2.03;;;4.50;99.90;;;;;;4954864;28;20687;-75
2020/12/25 09:42:32;;;;;;;3.00;1.97;;;4.50;99.90;;;;;;4959012;28;20312;-75
2020/12/25 09:44:57;;;;;;;3.03;2.73;;;4.60;99.90;;;;;;4973963;28;20588;-76
2020/12/25 09:47:23;;;;;;;2.37;1.80;;;4.60;99.90;;;;;;4972824;28;20171;-76
2020/12/25 09:49:49;;;;;;;7.33;2.30;;;4.60;99.90;;;;;;4956662;28;20211;-76
2020/12/25 09:52:15;;;;;;;9.73;2.90;;;4.70;99.90;;;;;;4970590;28;20230;-76
2020/12/25 09:54:40;;;;;;;5.67;3.23;;;4.70;99.90;;;;;;4964957;28;20760;-75
2020/12/25 09:57:06;;;;;;;4.90;3.57;;;4.80;99.90;;;;;;4973953;28;20874;-76
2020/12/25 09:59:32;;;;;;;5.33;2.63;;;4.80;99.90;;;;;;4959761;28;20334;-75
2020/12/25 10:01:57;;;;;;;5.60;2.97;;;4.90;99.90;;;;;;4954903;29;20215;-76
2020/12/25 10:04:23;;;;;;;5.33;3.23;;;4.90;99.90;;;;;;4971405;28;20175;-76
2020/12/25 10:06:49;;;;;;;6.47;3.33;;;4.90;99.90;;;;;;4967564;28;20175;-76
2020/12/25 10:09:14;;;;;;;8.77;3.57;;;4.90;99.90;;;;;;4959284;28;20172;-75
2020/12/25 10:11:40;;;;;;;6.53;2.90;;;5.00;99.90;;;;;;4957509;28;20462;-75
2020/12/25 10:14:06;;;;;;;4.83;3.43;;;5.00;99.90;;;;;;4963073;28;20187;-75
2020/12/25 10:16:33;;;;;;;6.50;3.00;;;5.00;99.90;;;;;;4954023;29;21118;-76
2020/12/25 10:18:59;;;;;;;6.22;4.03;;;5.00;99.90;;;;;;4953561;28;20230;-76
2020/12/25 10:21:25;;;;;;;6.70;3.50;;;5.00;99.90;;;;;;4953290;29;20433;-75
2020/12/25 10:23:50;;;;;;;3.63;2.80;;;5.00;99.90;;;;;;4960895;28;20346;-75
2020/12/25 10:26:16;;;;;;;6.93;3.10;;;5.00;99.90;;;;;;4973060;28;20586;-76
2020/12/25 10:28:42;;;;;;;7.80;3.50;;;5.00;99.90;;;;;;4968766;28;20203;-76
2020/12/25 10:31:09;;;;;;;5.63;3.00;;;4.90;99.90;;;;;;4953694;28;20582;-76
2020/12/25 10:33:36;;;;;;;7.05;3.55;;;4.90;99.90;;;;;;4954127;28;20199;-76
2020/12/25 10:36:02;;;;;;;3.67;2.85;;;4.80;99.90;;;;;;4970764;28;20585;-76
2020/12/25 10:38:27;;;;;;;8.60;3.37;;;4.90;99.90;;;;;;4958720;28;20180;-76
2020/12/25 10:40:53;;;;;;;4.00;3.23;;;4.90;99.90;;;;;;4953426;28;20247;-76
2020/12/25 10:43:19;;;;;;;4.10;2.53;;;4.90;99.90;;;;;;4966068;28;20776;-75
2020/12/25 10:45:44;;;;;;;5.00;2.97;;;5.00;99.90;;;;;;4968745;28;20618;-75
2020/12/25 10:48:10;;;;;;;6.00;2.80;;;5.00;99.90;;;;;;4954064;29;20288;-75
2020/12/25 10:50:35;;;;;;;6.63;2.87;;;5.10;99.90;;;;;;4955430;28;20222;-76
2020/12/25 10:53:01;;;;;;;7.20;3.40;;;5.10;99.90;;;;;;4955494;28;20241;-75
2020/12/25 10:55:27;;;;;;;7.20;2.90;;;5.10;99.90;;;;;;4964331;28;20293;-76
2020/12/25 10:57:52;;;;;;;7.97;2.30;;;5.10;99.90;;;;;;4964586;28;20626;-75
2020/12/25 11:00:18;;;;;;;9.77;2.83;;;5.10;99.90;;;;;;4971720;28;20297;-76
2020/12/25 11:02:44;;;;;;;5.83;2.80;;;5.10;99.90;;;;;;4972763;28;20274;-75
2020/12/25 11:05:09;;;;;;;4.00;3.60;;;5.20;99.90;;;;;;4967885;28;20582;-75
2020/12/25 11:07:35;;;;;;;5.47;2.43;;;5.20;99.90;;;;;;4937263;29;20725;-77
2020/12/25 11:10:01;;;;;;;4.23;2.90;;;5.20;99.90;;;;;;4967988;28;20631;-76
2020/12/25 11:12:26;;;;;;;3.30;2.90;;;5.20;99.90;;;;;;4956122;28;20761;-76
2020/12/25 11:14:52;;;;;;;8.10;2.83;;;5.20;99.90;;;;;;4971304;28;20219;-76
2020/12/25 11:17:17;;;;;;;4.47;3.10;;;5.20;99.90;;;;;;4956051;28;20532;-74
2020/12/25 11:19:43;;;;;;;7.23;3.10;;;5.20;99.90;;;;;;4961361;28;20215;-78
2020/12/25 11:22:13;;;;;;;7.20;2.90;;;5.20;99.90;;;;;;4953536;29;20697;-76
2020/12/25 11:24:41;;;;;;;8.02;3.45;;;5.20;99.90;;;;;;4937081;28;20219;-76
2020/12/25 11:27:06;;;;;;;8.68;3.95;;;5.20;99.90;;;;;;4953838;29;20227;-76
2020/12/25 11:29:32;;;;;;;6.87;2.83;;;5.30;99.90;;;;;;4938419;28;20211;-76
2020/12/25 11:31:58;;;;;;;4.83;2.60;;;5.20;99.90;;;;;;4953616;28;20610;-76
2020/12/25 11:34:24;;;;;;;6.83;3.00;;;5.30;99.90;;;;;;4952751;28;20733;-76
2020/12/25 11:36:49;;;;;;;11.30;3.70;;;5.30;99.90;;;;;;4953476;28;20161;-77
2020/12/25 11:39:15;;;;;;;7.47;3.70;;;5.20;99.90;;;;;;4972346;28;20295;-76
2020/12/25 11:41:41;;;;;;;7.53;4.07;;;5.20;99.90;;;;;;4971948;28;20238;-77
2020/12/25 11:44:07;;;;;;;8.27;3.87;;;5.20;99.90;;;;;;4953963;28;20419;-76
2020/12/25 11:46:33;;;;;;;6.90;4.40;;;5.20;99.90;;;;;;4965676;28;20204;-77
2020/12/25 11:48:59;;;;;;;6.27;3.67;;;5.20;99.90;;;;;;4961696;28;20534;-76
2020/12/25 11:51:27;;;;;;;8.02;4.60;;;5.20;99.90;;;;;;4958168;28;20849;-77
2020/12/25 11:53:54;;;;;;;6.00;3.88;;;5.30;99.90;;;;;;4972058;28;20164;-76
2020/12/25 11:56:29;;;;;;;5.22;3.80;;;5.30;99.90;;;;;;4971038;28;20215;-76
2020/12/25 11:58:56;;;;;;;5.05;3.85;;;5.30;99.90;;;;;;4955264;28;20216;-76
2020/12/25 12:01:22;;;;;;;9.40;4.00;;;5.40;99.90;;;;;;4953204;28;20215;-76
2020/12/25 12:03:48;;;;;;;5.88;3.33;;;5.50;99.90;;;;;;4972012;28;20182;-76
2020/12/25 12:06:25;;;;;;;7.88;4.03;;;5.50;99.90;;;;;;4970968;28;20269;-76
2020/12/25 12:08:51;;;;;;;7.22;3.60;;;5.50;99.90;;;;;;4954857;28;20179;-76
2020/12/25 12:11:17;;;;;;;8.95;2.92;;;5.50;99.90;;;;;;4953203;28;20445;-76
2020/12/25 12:13:43;;;;;;;6.63;2.80;;;5.50;99.90;;;;;;4954395;28;20191;-76
2020/12/25 12:16:17;;;;;;;3.95;2.40;;;5.60;99.90;;;;;;4970595;28;20463;-76
2020/12/25 12:18:43;;;;;;;9.82;3.42;;;5.60;99.90;;;;;;4954496;28;20222;-76
2020/12/25 12:21:10;;;;;;;4.03;2.57;;;5.60;99.90;;;;;;4953270;28;20222;-76
2020/12/25 12:23:36;;;;;;;5.55;2.58;;;5.60;99.90;;;;;;4971895;28;20448;-74
2020/12/25 12:26:03;;;;;;;8.30;2.13;;;5.60;99.90;;;;;;4952849;28;20211;-76
2020/12/25 12:28:29;;;;;;;7.18;2.33;;;5.60;99.90;;;;;;4971622;28;20171;-76
2020/12/25 12:30:55;;;;;;;4.70;1.93;;;5.60;99.90;;;;;;4962221;28;20211;-76
2020/12/25 12:33:21;;;;;;;5.88;2.50;;;5.60;99.90;;;;;;4934686;28;20206;-76
2020/12/25 12:35:47;;;;;;;4.87;3.00;;;5.60;99.90;;;;;;4970856;28;20609;-76
2020/12/25 12:38:13;;;;;;;6.55;2.22;;;5.60;99.90;;;;;;4970073;28;20790;-76
2020/12/25 12:40:39;;;;;;;4.35;1.85;;;5.60;99.90;;;;;;4969212;28;20693;-76
2020/12/25 12:43:06;;;;;;;6.63;2.87;;;5.60;99.90;;;;;;4955701;28;20209;-76
2020/12/25 12:45:32;;;;;;;6.93;2.70;;;5.60;99.90;;;;;;4957996;28;20501;-76
2020/12/25 12:47:58;;;;;;;3.60;1.75;;;5.60;99.90;;;;;;4958844;28;20234;-76
2020/12/25 12:50:24;;;;;;;5.80;2.80;;;5.70;99.90;;;;;;4969842;28;20689;-76
2020/12/25 12:52:50;;;;;;;7.57;3.22;;;5.70;99.90;;;;;;4976838;28;20569;-77
2020/12/25 12:55:15;;;;;;;5.20;2.77;;;5.80;99.90;;;;;;4976933;28;20218;-77